OKBO2: North Canadian River at Britton Rd at OKC, OK

                                SHEF ID:       OKBO2     North Canadian River at Britton
STATION TYPE:

STAGE RIV-FLOW WTR-TEMP DIS-OXY CONDUCT BAT-LOAD
ft cfs F mg/l umho/cm volt
Ccp-Rev Ccp-Rev Ccp-Rev Ccp-Rev Ccp-Rev Ccp-Rev
(America/Chicago)
04/29 00:00 4.87 70 68.11 8.30 897 12.01
04/29 01:00 4.86 68 67.28 7.67 899 11.98
04/29 02:00 4.85 67 66.52 7.17 903 11.94
04/29 03:00 4.84 66 65.77 6.75 909 11.94
04/29 04:00 4.84 66 64.87 6.55 914 11.91
04/29 05:00 4.83 64 64.00 6.61 920 11.91
04/29 06:00 4.83 64 63.03 6.49 924 11.89
04/29 07:00 4.78 58 62.06 6.57 929 11.87
04/29 08:00 4.80 60 61.20 6.68 932 11.98
04/29 09:00 4.83 64 60.78 7.24 932 13.32
04/29 10:00 4.82 63 61.38 8.33 928 13.24
04/29 11:00 4.80 60 62.40 9.49 929 13.03
04/29 12:00 4.80 60 64.15 10.39 924 13.01
04/29 13:00 4.77 57 66.36 11.22 920 12.93
04/29 14:00 4.75 54 68.65 12.03 915 12.87
04/29 15:00 4.74 53 70.39 12.77 909 12.80
04/29 16:00 4.78 58 71.01 13.25 902 12.86
04/29 17:00 4.78 58 72.34 13.71 902 12.75
04/29 18:00 4.78 58 72.46 13.94 898 12.78
04/29 19:00 4.79 59 71.89 13.81 887 12.71
04/29 20:00 4.78 58 70.92 13.07 876 12.60
04/29 21:00 4.77 57 70.09 12.33 878 12.38
04/29 22:00 4.75 54 69.30 11.10 872 12.21
04/29 23:00 4.75 54 68.52 9.95 880 12.08
Data processed at Thu 30Apr2026 04:25 GMT

NOTICE: If you are parsing this page

Please convert to using our Data API. Starting early 2026 we will be migrating to: https://water.usace.army.mil with modern pages rendered in JavaScript. When this migration completes you will no longer be able to scrape this page! CWMSDataAPI (CDA)

Timeseries IDs (TSIDs)

TSIDs used from left to right in the data table
OKC3.Stage.Inst.1Hour.0.Ccp-Rev
OKC3.Flow.Inst.1Hour.0.Ccp-Rev
OKC3.Temp-Water.Inst.1Hour.0.Ccp-Rev
OKC3.Conc-DO.Inst.1Hour.0.Ccp-Rev
OKC3.Cond-Water.Inst.1Hour.0.Ccp-Rev
OKC3.Volt-Battery Load.Inst.1Hour.0.Ccp-Rev

                            

All information presented herein is the property of the government of the United States of America and may be revised or deleted at any time without prior notice. Dissemination of this information without the expressed written consent of the Public Affairs Office, Tulsa District U.S. Army Corps of Engineers is strictly prohibited. These data are gathered electronically and, as presented, have NOT undergone any form of quality control. These data are NOT guaranteed to be valid or correct.